San Diego, California
Traffic Map
Current Weather Conditions
San Diego, California
Clear
Clear
19°
Feels Like: 19°
Wind Chill: 19° Ceiling: Unl
Heat Index: 19° Visibility: 10mi
Dew Point: Wind: 0mph
Humidity: 52% Direction: ° ()
Pressure: 29.99in Gusts: 0mph
Raw Report DataKSAN 241451Z 00000KT 10SM CLR 19/09 A2999 RMK AO2 SLP154 T01940094 53007
Traffic Incident Summary
Active as of:
Severity:
Category:
InformationThere was an issue retrieving the traffic information for this location. Please try a different location or try again shortly.
Advertisements
Track Severe Weather on mobile